createdAt,value
2023-03-20T00:00:00.110Z,13.57
2023-03-20T00:02:29.249Z,13.80
2023-03-20T00:04:59.653Z,14.30
2023-03-20T00:07:28.784Z,15.67
2023-03-20T00:09:57.919Z,15.60
2023-03-20T00:12:27.348Z,15.67
2023-03-20T00:14:56.554Z,15.53
2023-03-20T00:17:25.732Z,15.30
2023-03-20T00:19:54.772Z,14.90
2023-03-20T00:22:25.193Z,14.37
2023-03-20T00:24:54.341Z,16.17
2023-03-20T00:27:23.385Z,15.00
2023-03-20T00:29:52.422Z,15.20
2023-03-20T00:32:21.460Z,15.50
2023-03-20T00:34:50.627Z,15.93
2023-03-20T00:37:19.697Z,16.17
2023-03-20T00:39:50.342Z,15.13
2023-03-20T00:42:23.004Z,15.97
2023-03-20T00:44:54.693Z,15.80
2023-03-20T00:47:27.194Z,16.33
2023-03-20T00:49:57.889Z,16.10
2023-03-20T00:52:27.253Z,16.40
2023-03-20T00:54:57.646Z,16.80
2023-03-20T00:57:30.800Z,15.97
2023-03-20T01:00:05.046Z,16.50
2023-03-20T01:02:35.119Z,16.33
2023-03-20T01:05:05.587Z,13.57
2023-03-20T01:07:34.725Z,15.77
2023-03-20T01:10:07.746Z,16.93
2023-03-20T01:12:36.857Z,16.67
2023-03-20T01:15:16.018Z,15.97
2023-03-20T01:17:45.372Z,16.40
2023-03-20T01:20:17.839Z,15.77
2023-03-20T01:22:47.062Z,17.63
2023-03-20T01:25:17.810Z,15.90
2023-03-20T01:27:51.424Z,17.23
2023-03-20T01:30:23.458Z,16.43
2023-03-20T01:32:53.171Z,16.47
2023-03-20T01:35:25.087Z,15.57
2023-03-20T01:37:54.512Z,16.47
2023-03-20T01:40:38.401Z,16.70
2023-03-20T01:43:14.746Z,16.83
2023-03-20T01:45:55.245Z,14.47
2023-03-20T01:48:28.625Z,15.33
2023-03-20T01:50:57.742Z,13.10
2023-03-20T01:53:30.782Z,12.43
2023-03-20T01:56:04.831Z,13.00
2023-03-20T01:58:46.673Z,12.20
2023-03-20T02:01:16.659Z,11.93
2023-03-20T02:03:51.833Z,12.37
2023-03-20T02:06:34.272Z,11.40
2023-03-20T02:09:13.657Z,11.33
2023-03-20T02:11:47.473Z,10.90
2023-03-20T02:14:18.604Z,10.17
2023-03-20T02:16:56.536Z,10.47
2023-03-20T02:19:47.542Z,10.40
2023-03-20T02:23:04.501Z,11.17
2023-03-20T02:26:09.170Z,10.73
2023-03-20T02:29:10.352Z,10.87
2023-03-20T02:32:15.350Z,8.93
2023-03-20T02:35:15.459Z,9.77
2023-03-20T02:38:26.318Z,9.13
2023-03-20T02:41:03.186Z,8.47
2023-03-20T02:43:43.251Z,8.80
2023-03-20T02:46:19.246Z,7.63
2023-03-20T02:48:55.687Z,7.70
2023-03-20T02:51:32.770Z,7.10
2023-03-20T02:54:08.353Z,7.40
2023-03-20T02:56:49.237Z,6.97
2023-03-20T02:59:27.794Z,5.90
2023-03-20T03:02:04.062Z,6.43
2023-03-20T03:04:39.344Z,6.17
2023-03-20T03:07:11.987Z,6.27
2023-03-20T03:09:47.282Z,5.60
2023-03-20T03:12:21.410Z,5.33
2023-03-20T03:14:54.547Z,5.43
2023-03-20T03:17:28.257Z,5.57
2023-03-20T03:20:04.802Z,4.77
2023-03-20T03:22:36.226Z,4.63
2023-03-20T03:25:06.632Z,4.77
2023-03-20T03:27:42.033Z,4.03
2023-03-20T03:30:17.057Z,4.17
2023-03-20T03:32:52.368Z,3.90
2023-03-20T03:35:24.529Z,4.37
2023-03-20T03:37:59.938Z,3.60
2023-03-20T03:40:36.982Z,3.73
2023-03-20T03:43:16.490Z,3.43
2023-03-20T03:45:50.629Z,3.33
2023-03-20T03:48:25.790Z,3.40
2023-03-20T03:50:58.425Z,3.57
2023-03-20T03:53:32.944Z,3.50
2023-03-20T03:56:07.276Z,3.23
2023-03-20T03:58:42.816Z,2.87
2023-03-20T04:01:14.180Z,2.60
2023-03-20T04:03:47.212Z,3.77
2023-03-20T04:06:18.148Z,3.07
2023-03-20T04:08:47.486Z,2.50
2023-03-20T04:11:18.561Z,2.70
2023-03-20T04:13:50.779Z,2.60
2023-03-20T04:16:21.841Z,3.00
2023-03-20T04:18:51.923Z,3.40
2023-03-20T04:21:21.567Z,3.50
2023-03-20T04:23:50.739Z,2.80
2023-03-20T04:26:21.411Z,2.97
2023-03-20T04:28:52.077Z,2.83
2023-03-20T04:31:32.989Z,3.30
2023-03-20T04:34:12.877Z,2.83
2023-03-20T04:37:02.613Z,3.10
2023-03-20T04:39:44.296Z,2.60
2023-03-20T04:42:13.782Z,4.03
2023-03-20T04:44:44.343Z,3.57
2023-03-20T04:47:13.413Z,2.90
2023-03-20T04:49:44.721Z,2.93
2023-03-20T04:52:13.884Z,2.77
2023-03-20T04:54:45.071Z,3.90
2023-03-20T04:57:14.422Z,3.20
2023-03-20T04:59:45.332Z,2.40
2023-03-20T05:02:15.088Z,2.57
2023-03-20T05:04:44.257Z,2.63
2023-03-20T05:07:13.762Z,3.03
2023-03-20T05:09:52.069Z,2.30
2023-03-20T05:12:22.876Z,3.10
2023-03-20T05:15:10.820Z,3.03
2023-03-20T05:17:58.131Z,3.67
2023-03-20T05:20:53.459Z,3.20
2023-03-20T05:23:41.270Z,3.03
2023-03-20T05:26:28.831Z,3.20
2023-03-20T05:29:11.948Z,3.47
2023-03-20T05:32:01.740Z,3.47
2023-03-20T05:34:57.456Z,3.43
2023-03-20T05:37:35.995Z,3.30
2023-03-20T05:40:12.081Z,2.70
2023-03-20T05:42:52.687Z,3.03
2023-03-20T05:45:45.492Z,3.10
2023-03-20T05:48:36.875Z,3.50
2023-03-20T05:51:21.621Z,2.97
2023-03-20T05:53:56.381Z,3.10
2023-03-20T05:56:37.549Z,3.77
2023-03-20T05:59:23.120Z,3.20
2023-03-20T06:02:05.382Z,3.00
2023-03-20T06:04:39.293Z,3.33
2023-03-20T06:07:21.552Z,3.30
2023-03-20T06:09:59.220Z,3.30
2023-03-20T06:12:29.622Z,4.00
2023-03-20T06:14:58.720Z,3.20
2023-03-20T06:17:28.892Z,3.60
2023-03-20T06:20:06.759Z,3.67
2023-03-20T06:22:35.919Z,3.57
2023-03-20T06:25:05.946Z,3.93
2023-03-20T06:27:40.519Z,4.23
2023-03-20T06:30:11.513Z,4.23
2023-03-20T06:32:42.752Z,4.27
2023-03-20T06:35:16.484Z,4.67
2023-03-20T06:37:48.551Z,4.60
2023-03-20T06:40:23.250Z,4.60
2023-03-20T06:42:52.968Z,4.73
2023-03-20T06:45:24.140Z,4.73
2023-03-20T06:48:01.966Z,3.70
2023-03-20T06:50:32.927Z,3.97
2023-03-20T06:53:03.031Z,5.27
2023-03-20T06:56:01.761Z,4.60
2023-03-20T06:58:31.425Z,4.53
2023-03-20T07:01:00.446Z,4.80
2023-03-20T07:03:30.171Z,4.90
2023-03-20T07:06:03.131Z,5.23
2023-03-20T07:08:34.720Z,4.80
2023-03-20T07:11:04.649Z,4.77
2023-03-20T07:13:34.267Z,5.30
2023-03-20T07:16:12.784Z,5.73
2023-03-20T07:18:43.902Z,5.87
2023-03-20T07:21:21.246Z,4.97
2023-03-20T07:23:50.421Z,5.73
2023-03-20T07:26:19.703Z,4.20
2023-03-20T07:28:48.966Z,5.80
2023-03-20T07:31:31.124Z,4.60
2023-03-20T07:34:11.386Z,5.47
2023-03-20T07:36:43.150Z,5.43
2023-03-20T07:39:14.942Z,5.77
2023-03-20T07:41:49.518Z,5.30
2023-03-20T07:44:28.202Z,5.00
2023-03-20T07:46:58.108Z,5.33
2023-03-20T07:49:27.429Z,4.73
2023-03-20T07:51:57.996Z,5.33
2023-03-20T07:54:27.355Z,4.37
2023-03-20T07:56:56.506Z,4.67
2023-03-20T07:59:26.304Z,4.03
2023-03-20T08:01:55.362Z,4.53
2023-03-20T08:04:24.754Z,4.40
2023-03-20T08:06:53.902Z,4.60
2023-03-20T08:09:25.041Z,4.87
2023-03-20T08:11:54.160Z,4.17
2023-03-20T08:14:23.452Z,4.10
2023-03-20T08:17:10.329Z,4.17
2023-03-20T08:19:41.867Z,4.43
2023-03-20T08:22:11.038Z,4.50
2023-03-20T08:24:41.512Z,3.93
2023-03-20T08:27:10.634Z,3.83
2023-03-20T08:29:40.055Z,3.97
2023-03-20T08:32:09.294Z,3.97
2023-03-20T08:34:38.513Z,4.63
2023-03-20T08:37:07.870Z,4.20
2023-03-20T08:39:37.733Z,4.20
2023-03-20T08:42:08.512Z,4.03
2023-03-20T08:44:37.570Z,3.70
2023-03-20T08:47:07.582Z,3.90
2023-03-20T08:49:36.905Z,3.63
2023-03-20T08:52:06.935Z,3.87
2023-03-20T08:54:36.177Z,3.90
2023-03-20T08:57:05.263Z,4.10
2023-03-20T08:59:36.067Z,3.37
2023-03-20T09:02:05.676Z,2.97
2023-03-20T09:04:34.759Z,2.90
2023-03-20T09:07:04.085Z,3.50
2023-03-20T09:09:33.380Z,3.00
2023-03-20T09:12:02.877Z,3.20
2023-03-20T09:14:31.962Z,3.30
2023-03-20T09:17:02.453Z,3.07
2023-03-20T09:19:31.937Z,2.90
2023-03-20T09:22:01.402Z,2.77
2023-03-20T09:24:31.417Z,2.90
2023-03-20T09:27:03.521Z,2.87
2023-03-20T09:29:32.941Z,3.37
2023-03-20T09:32:03.535Z,2.57
2023-03-20T09:34:32.628Z,2.93
2023-03-20T09:37:03.140Z,3.13
2023-03-20T09:39:32.352Z,3.10
2023-03-20T09:42:07.956Z,2.73
2023-03-20T09:44:52.383Z,2.53
2023-03-20T09:47:31.235Z,2.43
2023-03-20T09:50:29.419Z,2.67
2023-03-20T09:53:07.095Z,2.60
2023-03-20T09:55:39.800Z,2.57
2023-03-20T09:58:16.246Z,2.80
2023-03-20T10:00:47.930Z,2.83
2023-03-20T10:03:22.555Z,3.13
2023-03-20T10:06:00.093Z,3.23
2023-03-20T10:08:32.562Z,3.10
2023-03-20T10:11:12.872Z,3.80
2023-03-20T10:13:57.603Z,2.70
2023-03-20T10:16:45.644Z,3.30
2023-03-20T10:19:23.759Z,3.53
2023-03-20T10:21:59.050Z,3.20
2023-03-20T10:24:32.962Z,3.23
2023-03-20T10:27:07.346Z,2.97
2023-03-20T10:29:52.944Z,3.00
2023-03-20T10:32:27.976Z,2.97
2023-03-20T10:35:11.415Z,3.53
2023-03-20T10:37:54.249Z,3.47
2023-03-20T10:40:30.288Z,3.97
2023-03-20T10:43:04.140Z,3.70
2023-03-20T10:45:40.423Z,4.37
2023-03-20T10:48:18.004Z,4.00
2023-03-20T10:50:51.777Z,4.50
2023-03-20T10:53:38.422Z,3.00
2023-03-20T10:56:11.765Z,4.00
2023-03-20T10:58:45.120Z,3.93
2023-03-20T11:01:14.339Z,4.17
2023-03-20T11:03:43.525Z,3.83
2023-03-20T11:06:20.109Z,4.63
2023-03-20T11:08:52.398Z,3.50
2023-03-20T11:11:26.575Z,3.83
2023-03-20T11:13:56.951Z,4.33
2023-03-20T11:16:31.113Z,3.97
2023-03-20T11:19:06.929Z,3.40
2023-03-20T11:21:46.407Z,3.80
2023-03-20T11:24:27.040Z,4.03
2023-03-20T11:27:05.959Z,4.63
2023-03-20T11:29:36.111Z,3.80
2023-03-20T11:32:08.359Z,4.03
2023-03-20T11:34:41.228Z,3.13
2023-03-20T11:37:25.857Z,3.60
2023-03-20T11:39:58.551Z,3.30
2023-03-20T11:42:30.326Z,3.60
2023-03-20T11:45:02.066Z,3.80
2023-03-20T11:47:35.372Z,3.20
2023-03-20T11:50:07.305Z,3.40
2023-03-20T11:52:40.995Z,3.67
2023-03-20T11:55:26.130Z,4.17
2023-03-20T11:57:58.964Z,3.43
2023-03-20T12:00:30.332Z,3.30
2023-03-20T12:02:59.405Z,3.20
2023-03-20T12:05:35.447Z,3.10
2023-03-20T12:08:14.030Z,3.53
2023-03-20T12:10:47.043Z,3.47
2023-03-20T12:13:21.698Z,3.00
2023-03-20T12:15:56.593Z,3.00
2023-03-20T12:18:32.589Z,3.80
2023-03-20T12:21:10.563Z,3.73
2023-03-20T12:23:44.849Z,4.00
2023-03-20T12:26:16.902Z,2.90
2023-03-20T12:28:53.560Z,3.13
2023-03-20T12:31:27.470Z,5.23
2023-03-20T12:34:01.394Z,4.13
2023-03-20T12:36:34.318Z,3.33
2023-03-20T12:39:08.074Z,4.03
2023-03-20T12:41:46.495Z,3.27
2023-03-20T12:44:33.442Z,3.10
2023-03-20T12:47:14.973Z,3.10
2023-03-20T12:49:51.935Z,3.17
2023-03-20T12:52:33.142Z,3.40
2023-03-20T12:55:26.810Z,3.50
2023-03-20T12:58:09.451Z,3.77
2023-03-20T13:00:49.600Z,3.83
2023-03-20T13:03:31.138Z,3.77
2023-03-20T13:06:08.328Z,3.67
2023-03-20T13:09:10.225Z,3.35
2023-03-20T13:11:51.706Z,3.70
2023-03-20T13:14:25.729Z,2.93
2023-03-20T13:17:00.763Z,3.10
2023-03-20T13:19:38.221Z,3.07
2023-03-20T13:22:13.868Z,3.30
2023-03-20T13:24:47.229Z,3.27
2023-03-20T13:27:33.052Z,3.83
2023-03-20T13:30:06.322Z,3.05
2023-03-20T13:32:47.038Z,2.93
2023-03-20T13:35:33.081Z,3.60
2023-03-20T13:38:07.820Z,2.80
2023-03-20T13:40:41.063Z,2.60
2023-03-20T13:43:26.126Z,3.07
2023-03-20T13:46:04.606Z,2.93
2023-03-20T13:48:37.274Z,3.10
2023-03-20T13:51:15.012Z,3.07
2023-03-20T13:53:56.027Z,3.10
2023-03-20T13:56:37.012Z,2.63
2023-03-20T13:59:29.717Z,3.00
2023-03-20T14:02:07.020Z,2.90
2023-03-20T14:04:37.833Z,2.97
2023-03-20T14:07:30.003Z,2.70
2023-03-20T14:09:59.391Z,2.87
2023-03-20T14:12:33.251Z,2.73
2023-03-20T14:15:06.001Z,2.97
2023-03-20T14:17:35.348Z,2.70
2023-03-20T14:20:17.241Z,2.73
2023-03-20T14:22:48.945Z,2.93
2023-03-20T14:25:21.118Z,3.10
2023-03-20T14:27:57.934Z,2.90
2023-03-20T14:30:43.099Z,3.00
2023-03-20T14:33:31.168Z,3.27
2023-03-20T14:36:20.673Z,2.77
2023-03-20T14:39:07.168Z,3.23
2023-03-20T14:41:58.490Z,2.57
2023-03-20T14:44:39.612Z,2.97
2023-03-20T14:47:23.336Z,2.90
2023-03-20T14:49:58.708Z,2.70
2023-03-20T14:52:38.943Z,2.70
2023-03-20T14:55:35.380Z,3.47
2023-03-20T14:58:07.059Z,3.17
2023-03-20T15:00:47.448Z,3.30
2023-03-20T15:03:19.722Z,3.40
2023-03-20T15:05:57.007Z,3.73
2023-03-20T15:08:29.944Z,3.10
2023-03-20T15:11:04.058Z,3.37
2023-03-20T15:13:35.271Z,3.53
2023-03-20T15:16:08.074Z,3.50
2023-03-20T15:18:41.328Z,4.23
2023-03-20T15:21:15.637Z,3.83
2023-03-20T15:23:46.381Z,4.80
2023-03-20T15:26:16.973Z,3.20
2023-03-20T15:28:47.900Z,3.97
2023-03-20T15:31:25.350Z,4.07
2023-03-20T15:33:57.646Z,3.83
2023-03-20T15:36:29.555Z,3.70
2023-03-20T15:39:14.156Z,4.30
2023-03-20T15:41:47.312Z,3.90
2023-03-20T15:44:22.990Z,4.10
2023-03-20T15:46:54.518Z,4.40
2023-03-20T15:49:25.600Z,4.07
2023-03-20T15:51:57.116Z,4.37
2023-03-20T15:54:26.540Z,5.20
2023-03-20T15:56:59.878Z,18.90
2023-03-20T15:59:32.902Z,4.63
2023-03-20T16:02:03.423Z,5.40
2023-03-20T16:04:34.036Z,4.87
2023-03-20T16:07:03.218Z,4.73
2023-03-20T16:09:32.302Z,5.13
2023-03-20T16:12:03.098Z,4.93
2023-03-20T16:14:34.787Z,4.87
2023-03-20T16:17:05.824Z,5.17
2023-03-20T16:19:37.834Z,4.53
2023-03-20T16:22:24.353Z,5.00
2023-03-20T16:24:58.211Z,5.47
2023-03-20T16:27:30.517Z,5.03
2023-03-20T16:30:00.256Z,5.27
2023-03-20T16:32:36.052Z,5.27
2023-03-20T16:35:15.877Z,4.80
2023-03-20T16:37:49.874Z,5.20
2023-03-20T16:40:22.376Z,6.13
2023-03-20T16:42:56.823Z,5.60
2023-03-20T16:45:30.667Z,5.20
2023-03-20T16:48:28.366Z,5.73
2023-03-20T16:51:17.433Z,5.27
2023-03-20T16:53:49.772Z,5.30
2023-03-20T16:56:26.206Z,5.90
2023-03-20T16:58:57.249Z,8.90
2023-03-20T17:01:29.610Z,5.67
2023-03-20T17:04:12.319Z,7.93
2023-03-20T17:06:47.963Z,5.37
2023-03-20T17:09:24.642Z,5.50
2023-03-20T17:12:02.392Z,5.10
2023-03-20T17:14:31.621Z,5.23
2023-03-20T17:17:00.825Z,6.07
2023-03-20T17:19:33.170Z,6.20
2023-03-20T17:22:05.553Z,6.47
2023-03-20T17:24:34.780Z,6.03
2023-03-20T17:27:03.861Z,5.80
2023-03-20T17:29:33.022Z,5.47
2023-03-20T17:32:02.082Z,6.43
2023-03-20T17:34:31.323Z,6.53
2023-03-20T17:37:03.567Z,6.40
2023-03-20T17:39:32.616Z,5.57
2023-03-20T17:42:01.666Z,6.57
2023-03-20T17:44:30.753Z,5.83
2023-03-20T17:47:00.389Z,7.07
2023-03-20T17:49:29.503Z,6.27
2023-03-20T17:51:58.605Z,6.47
2023-03-20T17:54:29.067Z,6.50
2023-03-20T17:56:58.169Z,6.93
2023-03-20T17:59:31.056Z,6.63
2023-03-20T18:02:00.263Z,6.87
2023-03-20T18:04:29.448Z,6.40
2023-03-20T18:06:58.874Z,7.00
2023-03-20T18:09:30.600Z,6.63
2023-03-20T18:11:59.756Z,6.90
2023-03-20T18:14:28.863Z,7.73
2023-03-20T18:16:58.106Z,6.60
2023-03-20T18:19:30.296Z,7.70
2023-03-20T18:22:00.554Z,7.57
2023-03-20T18:24:32.325Z,7.77
2023-03-20T18:27:01.528Z,8.43
2023-03-20T18:29:31.037Z,7.43
2023-03-20T18:32:00.371Z,8.30
2023-03-20T18:34:29.407Z,8.00
2023-03-20T18:36:59.573Z,7.67
2023-03-20T18:39:28.695Z,7.93
2023-03-20T18:41:59.091Z,8.23
2023-03-20T18:44:28.151Z,8.17
2023-03-20T18:46:57.693Z,8.30
2023-03-20T18:49:26.906Z,7.07
2023-03-20T18:51:56.048Z,8.30
2023-03-20T18:54:25.054Z,8.17
2023-03-20T18:56:56.314Z,8.17
2023-03-20T18:59:26.837Z,8.37
2023-03-20T19:01:56.011Z,8.00
2023-03-20T19:04:26.763Z,8.60
2023-03-20T19:06:55.794Z,9.43
2023-03-20T19:09:25.362Z,9.57
2023-03-20T19:11:54.651Z,9.03
2023-03-20T19:14:25.706Z,8.43
2023-03-20T19:16:56.330Z,9.77
2023-03-20T19:19:25.655Z,9.27
2023-03-20T19:21:54.703Z,9.53
2023-03-20T19:24:23.956Z,8.87
2023-03-20T19:26:56.943Z,10.20
2023-03-20T19:29:28.095Z,9.00
2023-03-20T19:31:59.754Z,10.17
2023-03-20T19:35:10.770Z,9.87
2023-03-20T19:37:18.255Z,10.67
2023-03-20T19:39:47.320Z,9.93
2023-03-20T19:42:47.475Z,10.33
2023-03-20T19:45:07.325Z,9.67
2023-03-20T19:47:37.834Z,10.10
2023-03-20T19:50:07.649Z,10.03
2023-03-20T19:52:37.481Z,10.20
2023-03-20T19:55:07.519Z,10.13
2023-03-20T19:57:36.577Z,11.20
2023-03-20T20:00:54.972Z,10.30
2023-03-20T20:02:57.718Z,10.77
2023-03-20T20:05:29.451Z,12.50
2023-03-20T20:10:50.212Z,11.67
2023-03-20T20:13:21.522Z,10.77
2023-03-20T20:15:52.011Z,10.27
2023-03-20T20:18:24.783Z,12.00
2023-03-20T20:21:39.455Z,10.60
2023-03-20T20:23:44.104Z,10.50
2023-03-20T20:26:13.165Z,11.70
2023-03-20T20:28:43.546Z,10.97
2023-03-20T20:31:12.598Z,10.50
2023-03-20T20:33:43.254Z,11.33
2023-03-20T20:39:04.701Z,10.37
2023-03-20T20:41:34.231Z,11.33
2023-03-20T20:44:15.553Z,11.43
2023-03-20T20:46:45.504Z,10.93
2023-03-20T20:49:19.941Z,11.83
2023-03-20T20:51:50.201Z,11.63
2023-03-20T20:54:19.485Z,11.40
2023-03-20T20:56:48.728Z,10.60
2023-03-20T20:59:19.020Z,10.53
2023-03-20T21:01:48.899Z,11.07
2023-03-20T21:04:19.675Z,10.13
2023-03-20T21:07:10.030Z,9.70
2023-03-20T21:09:38.300Z,10.07
2023-03-20T21:12:08.640Z,10.20
2023-03-20T21:14:38.232Z,9.00
2023-03-20T21:17:08.090Z,10.43
2023-03-20T21:19:40.540Z,9.70
2023-03-20T21:22:11.927Z,10.47
2023-03-20T21:24:41.321Z,7.47
2023-03-20T21:27:13.768Z,9.47
2023-03-20T21:29:44.461Z,10.03
2023-03-20T21:32:17.194Z,10.43
2023-03-20T21:34:49.227Z,10.83
2023-03-20T21:40:10.632Z,9.50
2023-03-20T21:42:39.861Z,9.60
2023-03-20T21:46:25.257Z,9.83
2023-03-20T21:48:33.343Z,9.03
2023-03-20T21:51:23.552Z,9.07
2023-03-20T21:59:54.474Z,9.47
2023-03-20T22:02:14.981Z,8.80
2023-03-20T22:08:18.490Z,9.03
2023-03-20T22:11:22.693Z,9.10
2023-03-20T22:17:00.616Z,9.07
2023-03-20T22:22:31.979Z,9.80
2023-03-20T22:42:25.801Z,9.77
2023-03-20T22:44:58.961Z,9.17
2023-03-20T22:47:15.324Z,9.23
2023-03-20T22:49:44.347Z,8.60
2023-03-20T22:52:27.139Z,8.50
2023-03-20T22:55:02.519Z,8.30
2023-03-20T22:57:42.324Z,9.50
2023-03-20T23:00:17.953Z,7.67
2023-03-20T23:02:47.613Z,8.23
2023-03-20T23:05:16.877Z,8.07
2023-03-20T23:07:46.079Z,8.50
2023-03-20T23:10:15.323Z,8.33
2023-03-20T23:12:46.049Z,9.27
2023-03-20T23:15:15.127Z,8.33
2023-03-20T23:17:44.109Z,8.73
2023-03-20T23:20:18.752Z,8.63
2023-03-20T23:22:49.482Z,8.57
2023-03-20T23:25:31.074Z,9.27
2023-03-20T23:28:09.119Z,9.03
2023-03-20T23:30:45.330Z,9.07
2023-03-20T23:33:17.726Z,8.90
2023-03-20T23:35:47.470Z,8.90
2023-03-20T23:38:17.503Z,8.60
2023-03-20T23:40:50.521Z,7.40
2023-03-20T23:43:21.188Z,9.00
2023-03-20T23:45:51.039Z,8.30
2023-03-20T23:48:20.437Z,8.43
2023-03-20T23:50:53.353Z,8.00
2023-03-20T23:53:23.398Z,8.43
2023-03-20T23:55:55.122Z,8.57
2023-03-20T23:58:27.003Z,8.87
